createdAt,value
2017-12-06T00:01:26.382Z,12.20
2017-12-06T00:03:54.785Z,13.20
2017-12-06T00:06:23.036Z,14.17
2017-12-06T00:08:51.347Z,13.27
2017-12-06T00:11:19.668Z,12.00
2017-12-06T00:13:53.483Z,14.60
2017-12-06T00:16:21.897Z,13.20
2017-12-06T00:18:50.149Z,14.23
2017-12-06T00:21:18.404Z,14.50
2017-12-06T00:23:46.902Z,14.10
2017-12-06T00:26:15.150Z,13.33
2017-12-06T00:28:44.146Z,13.47
2017-12-06T00:31:12.466Z,14.20
2017-12-06T00:33:40.686Z,12.20
2017-12-06T00:36:09.695Z,13.00
2017-12-06T00:38:38.871Z,13.00
2017-12-06T00:41:10.595Z,12.40
2017-12-06T00:43:38.889Z,14.00
2017-12-06T00:46:07.169Z,13.83
2017-12-06T00:48:35.399Z,12.97
2017-12-06T00:51:03.836Z,13.20
2017-12-06T00:53:32.850Z,13.17
2017-12-06T00:56:01.857Z,14.67
2017-12-06T00:58:30.168Z,13.90
2017-12-06T01:00:58.388Z,14.60
2017-12-06T01:03:27.364Z,13.40
2017-12-06T01:05:55.687Z,12.87
2017-12-06T01:08:23.952Z,15.20
2017-12-06T01:10:52.191Z,14.30
2017-12-06T01:13:20.504Z,13.40
2017-12-06T01:15:48.761Z,13.37
2017-12-06T01:18:17.043Z,13.80
2017-12-06T01:20:45.371Z,13.17
2017-12-06T01:23:13.739Z,13.00
2017-12-06T01:25:41.988Z,13.40
2017-12-06T01:28:10.248Z,14.67
2017-12-06T01:30:38.536Z,13.37
2017-12-06T01:33:06.910Z,15.10
2017-12-06T01:35:35.154Z,14.90
2017-12-06T01:38:04.156Z,14.10
2017-12-06T01:40:33.248Z,13.93
2017-12-06T01:43:02.271Z,13.80
2017-12-06T01:45:30.530Z,15.17
2017-12-06T01:47:58.853Z,13.73
2017-12-06T01:50:27.082Z,14.93
2017-12-06T01:52:55.529Z,13.50
2017-12-06T01:55:23.763Z,13.77
2017-12-06T01:57:52.006Z,13.90
2017-12-06T02:00:20.334Z,14.87
2017-12-06T02:02:48.618Z,14.50
2017-12-06T02:05:16.849Z,13.57
2017-12-06T02:07:45.225Z,14.10
2017-12-06T02:10:13.446Z,13.70
2017-12-06T02:12:41.687Z,12.47
2017-12-06T02:15:10.021Z,14.40
2017-12-06T02:17:39.098Z,14.93
2017-12-06T02:20:07.336Z,12.87
2017-12-06T02:22:35.631Z,15.40
2017-12-06T02:25:04.089Z,16.20
2017-12-06T02:27:32.312Z,13.87
2017-12-06T02:30:00.533Z,12.00
2017-12-06T02:32:28.859Z,12.87
2017-12-06T02:34:57.886Z,12.77
2017-12-06T02:37:26.129Z,13.83
2017-12-06T02:40:12.397Z,13.03
2017-12-06T02:42:58.444Z,13.83
2017-12-06T02:45:28.544Z,12.80
2017-12-06T02:47:56.773Z,13.30
2017-12-06T02:50:25.826Z,14.00
2017-12-06T02:52:54.175Z,12.60
2017-12-06T02:55:22.449Z,13.00
2017-12-06T02:57:50.683Z,12.80
2017-12-06T03:00:19.781Z,13.37
2017-12-06T03:02:48.781Z,11.13
2017-12-06T03:05:17.015Z,13.00
2017-12-06T03:07:46.209Z,11.50
2017-12-06T03:10:15.221Z,11.00
2017-12-06T03:12:43.459Z,12.27
2017-12-06T03:15:11.878Z,12.83
2017-12-06T03:17:40.140Z,12.63
2017-12-06T03:20:09.146Z,11.07
2017-12-06T03:22:37.569Z,10.10
2017-12-06T03:25:05.804Z,11.63
2017-12-06T03:27:34.034Z,11.83
2017-12-06T03:30:02.420Z,9.87
2017-12-06T03:32:30.679Z,10.70
2017-12-06T03:34:58.942Z,11.07
2017-12-06T03:37:27.329Z,10.30
2017-12-06T03:39:55.557Z,11.73
2017-12-06T03:42:23.794Z,11.60
2017-12-06T03:44:52.119Z,12.27
2017-12-06T03:47:20.372Z,11.50
2017-12-06T03:49:49.396Z,11.43
2017-12-06T03:52:17.725Z,13.00
2017-12-06T03:54:45.982Z,12.00
2017-12-06T03:57:14.214Z,12.17
2017-12-06T03:59:42.580Z,14.57
2017-12-06T04:02:11.980Z,14.70
2017-12-06T04:04:40.225Z,13.43
2017-12-06T04:07:08.657Z,14.20
2017-12-06T04:09:36.901Z,13.00
2017-12-06T04:12:05.904Z,14.50
2017-12-06T04:14:34.317Z,14.80
2017-12-06T04:17:02.559Z,15.23
2017-12-06T04:19:30.791Z,15.20
2017-12-06T04:21:59.116Z,15.00
2017-12-06T04:24:27.351Z,14.07
2017-12-06T04:26:55.573Z,15.87
2017-12-06T04:29:23.924Z,13.47
2017-12-06T04:31:52.909Z,14.20
2017-12-06T04:34:21.948Z,12.37
2017-12-06T04:36:50.230Z,14.07
2017-12-06T04:39:18.470Z,13.33
2017-12-06T04:41:46.902Z,13.20
2017-12-06T04:44:15.139Z,13.23
2017-12-06T04:46:43.373Z,14.20
2017-12-06T04:49:11.788Z,14.30
2017-12-06T04:51:40.032Z,13.77
2017-12-06T04:54:08.273Z,12.73
2017-12-06T04:56:36.600Z,13.10
2017-12-06T04:59:05.672Z,13.20
2017-12-06T05:01:33.931Z,13.13
2017-12-06T05:04:02.362Z,14.63
2017-12-06T05:06:30.627Z,14.63
2017-12-06T05:08:59.653Z,14.20
2017-12-06T05:11:27.983Z,14.40
2017-12-06T05:13:56.272Z,13.77
2017-12-06T05:16:25.284Z,13.83
2017-12-06T05:18:53.722Z,12.47
2017-12-06T05:21:21.955Z,13.70
2017-12-06T05:23:50.209Z,13.63
2017-12-06T05:26:18.548Z,13.83
2017-12-06T05:28:46.818Z,15.60
2017-12-06T05:31:15.120Z,13.00
2017-12-06T05:33:44.149Z,13.60
2017-12-06T05:36:12.376Z,14.30
2017-12-06T05:38:40.682Z,14.60
2017-12-06T05:41:08.910Z,17.30
2017-12-06T05:43:37.188Z,15.90
2017-12-06T05:46:05.494Z,15.30
2017-12-06T05:48:33.733Z,13.67
2017-12-06T05:51:01.968Z,16.50
2017-12-06T05:53:30.274Z,15.80
2017-12-06T05:55:58.529Z,15.80
2017-12-06T05:58:26.792Z,14.77
2017-12-06T06:00:55.057Z,14.97
2017-12-06T06:03:23.377Z,14.73
2017-12-06T06:05:51.650Z,15.33
2017-12-06T06:08:19.890Z,14.70
2017-12-06T06:10:48.206Z,16.60
2017-12-06T06:13:16.533Z,15.10
2017-12-06T06:15:44.801Z,13.47
2017-12-06T06:18:13.873Z,14.70
2017-12-06T06:20:42.123Z,14.97
2017-12-06T06:23:10.375Z,15.83
2017-12-06T06:25:38.690Z,16.00
2017-12-06T06:28:06.921Z,18.00
2017-12-06T06:30:35.180Z,15.17
2017-12-06T06:33:03.469Z,15.93
2017-12-06T06:35:31.710Z,13.77
2017-12-06T06:38:00.730Z,15.10
2017-12-06T06:40:29.037Z,14.30
2017-12-06T06:42:58.210Z,15.37
2017-12-06T06:45:26.461Z,13.50
2017-12-06T06:47:55.559Z,15.87
2017-12-06T06:50:24.578Z,12.77
2017-12-06T06:52:52.804Z,15.43
2017-12-06T06:55:21.184Z,16.67
2017-12-06T06:57:49.401Z,13.97
2017-12-06T07:00:17.632Z,14.83
2017-12-06T07:02:46.081Z,14.70
2017-12-06T07:05:14.379Z,15.50
2017-12-06T07:07:42.622Z,15.47
2017-12-06T07:10:10.955Z,15.37
2017-12-06T07:12:39.982Z,14.70
2017-12-06T07:15:08.463Z,16.20
2017-12-06T07:17:36.768Z,13.97
2017-12-06T07:20:04.992Z,14.43
2017-12-06T07:22:33.974Z,14.37
2017-12-06T07:25:03.036Z,14.13
2017-12-06T07:27:31.295Z,15.00
2017-12-06T07:29:59.531Z,13.50
2017-12-06T07:32:27.836Z,12.17
2017-12-06T07:34:56.071Z,15.17
2017-12-06T07:37:24.357Z,15.10
2017-12-06T07:39:53.377Z,13.57
2017-12-06T07:42:21.607Z,14.90
2017-12-06T07:44:49.919Z,13.00
2017-12-06T07:47:18.176Z,14.20
2017-12-06T07:49:47.176Z,13.00
2017-12-06T07:52:15.440Z,11.67
2017-12-06T07:54:44.464Z,14.00
2017-12-06T07:57:13.584Z,11.87
2017-12-06T07:59:41.859Z,14.87
2017-12-06T08:02:10.135Z,14.70
2017-12-06T08:04:38.366Z,12.83
2017-12-06T08:07:06.653Z,13.47
2017-12-06T08:09:34.924Z,13.70
2017-12-06T08:12:03.162Z,14.17
2017-12-06T08:14:31.417Z,14.90
2017-12-06T08:16:59.654Z,15.37
2017-12-06T08:19:27.901Z,13.13
2017-12-06T08:21:56.954Z,13.23
2017-12-06T08:24:25.168Z,13.67
2017-12-06T08:26:54.182Z,13.70
2017-12-06T08:29:22.474Z,12.73
2017-12-06T08:31:50.719Z,15.40
2017-12-06T08:34:18.989Z,13.03
2017-12-06T08:36:48.044Z,13.17
2017-12-06T08:39:16.286Z,13.67
2017-12-06T08:41:44.540Z,14.27
2017-12-06T08:44:13.612Z,13.30
2017-12-06T08:46:41.848Z,12.73
2017-12-06T08:49:10.893Z,13.67
2017-12-06T08:51:39.946Z,13.33
2017-12-06T08:54:08.259Z,14.50
2017-12-06T08:56:36.511Z,11.43
2017-12-06T08:59:04.851Z,12.03
2017-12-06T09:01:33.143Z,13.80
2017-12-06T09:04:01.357Z,14.10
2017-12-06T09:06:29.641Z,14.13
2017-12-06T09:08:57.888Z,15.60
2017-12-06T09:11:26.159Z,17.17
2017-12-06T09:13:54.583Z,15.80
2017-12-06T09:16:23.568Z,13.93
2017-12-06T09:18:51.868Z,14.73
2017-12-06T09:21:20.171Z,14.07
2017-12-06T09:23:48.413Z,15.30
2017-12-06T09:26:16.718Z,15.67
2017-12-06T09:28:45.010Z,14.00
2017-12-06T09:31:13.254Z,14.90
2017-12-06T09:33:41.485Z,13.70
2017-12-06T09:36:09.811Z,16.80
2017-12-06T09:38:38.139Z,14.20
2017-12-06T09:41:06.397Z,15.60
2017-12-06T09:43:34.843Z,16.30
2017-12-06T09:46:03.127Z,15.70
2017-12-06T09:48:31.366Z,14.00
2017-12-06T09:51:00.430Z,14.30
2017-12-06T09:53:28.709Z,15.67
2017-12-06T09:55:56.953Z,13.30
2017-12-06T09:58:25.310Z,14.03
2017-12-06T10:00:53.568Z,14.47
2017-12-06T10:03:22.565Z,13.30
2017-12-06T10:05:50.839Z,13.70
2017-12-06T10:08:19.834Z,14.43
2017-12-06T10:10:48.071Z,13.30
2017-12-06T10:13:16.357Z,13.53
2017-12-06T10:15:44.645Z,15.00
2017-12-06T10:18:13.661Z,15.07
2017-12-06T10:20:41.952Z,15.13
2017-12-06T10:23:10.240Z,15.83
2017-12-06T10:25:38.478Z,14.00
2017-12-06T10:28:07.519Z,14.57
2017-12-06T10:30:35.755Z,12.50
2017-12-06T10:33:03.987Z,14.50
2017-12-06T10:35:32.288Z,12.63
2017-12-06T10:38:01.339Z,11.73
2017-12-06T10:40:29.617Z,14.20
2017-12-06T10:42:57.976Z,11.87
2017-12-06T10:45:26.319Z,12.97
2017-12-06T10:47:54.554Z,11.60
2017-12-06T10:50:22.927Z,11.73
2017-12-06T10:52:51.175Z,12.77
2017-12-06T10:55:19.406Z,13.47
2017-12-06T10:57:47.702Z,17.10
2017-12-06T11:00:15.947Z,13.07
2017-12-06T11:02:44.203Z,12.13
2017-12-06T11:05:12.522Z,12.30
2017-12-06T11:07:41.532Z,13.23
2017-12-06T11:10:09.747Z,11.87
2017-12-06T11:12:38.015Z,11.57
2017-12-06T11:15:06.297Z,13.27
2017-12-06T11:17:34.541Z,11.97
2017-12-06T11:20:02.896Z,13.80
2017-12-06T11:22:31.884Z,12.77
2017-12-06T11:25:00.918Z,14.27
2017-12-06T11:27:29.209Z,13.20
2017-12-06T11:29:57.439Z,13.53
2017-12-06T11:32:25.684Z,11.80
2017-12-06T11:34:54.032Z,11.63
2017-12-06T11:37:22.279Z,13.13
2017-12-06T11:39:50.577Z,11.60
2017-12-06T11:42:18.894Z,11.50
2017-12-06T11:44:47.156Z,11.77
2017-12-06T11:47:15.409Z,12.50
2017-12-06T11:49:43.698Z,10.90
2017-12-06T11:52:11.957Z,12.40
2017-12-06T11:54:40.202Z,11.90
2017-12-06T11:57:08.528Z,14.80
2017-12-06T11:59:36.759Z,13.00
2017-12-06T12:02:04.987Z,12.73
2017-12-06T12:04:33.266Z,14.70
2017-12-06T12:07:01.493Z,13.07
2017-12-06T12:09:29.757Z,13.90
2017-12-06T12:11:58.047Z,14.23
2017-12-06T12:14:26.288Z,13.10
2017-12-06T12:16:55.318Z,13.60
2017-12-06T12:19:23.635Z,12.80
2017-12-06T12:21:52.353Z,13.10
2017-12-06T12:24:20.577Z,13.17
2017-12-06T12:26:48.904Z,12.57
2017-12-06T12:29:17.154Z,17.57
2017-12-06T12:31:45.406Z,13.47
2017-12-06T12:34:13.695Z,13.97
2017-12-06T12:36:41.947Z,18.07
2017-12-06T12:39:10.277Z,15.67
2017-12-06T12:41:39.360Z,13.73
2017-12-06T12:44:08.373Z,15.13
2017-12-06T12:46:36.589Z,15.60
2017-12-06T12:49:05.186Z,16.03
2017-12-06T12:51:33.419Z,13.20
2017-12-06T12:54:01.703Z,14.47
2017-12-06T12:56:29.998Z,12.47
2017-12-06T12:58:58.231Z,13.90
2017-12-06T13:01:26.506Z,12.90
2017-12-06T13:03:54.803Z,13.60
2017-12-06T13:06:23.050Z,13.80
2017-12-06T13:08:52.068Z,13.97
2017-12-06T13:11:20.341Z,15.77
2017-12-06T13:13:48.638Z,16.20
2017-12-06T13:16:16.974Z,15.00
2017-12-06T13:18:46.061Z,16.30
2017-12-06T13:21:15.075Z,15.00
2017-12-06T13:23:43.309Z,15.40
2017-12-06T13:26:11.615Z,14.53
2017-12-06T13:28:40.665Z,15.43
2017-12-06T13:31:08.908Z,17.20
2017-12-06T13:33:37.219Z,14.50
2017-12-06T13:36:05.515Z,13.90
2017-12-06T13:38:33.824Z,15.30
2017-12-06T13:41:02.170Z,12.60
2017-12-06T13:43:31.177Z,13.67
2017-12-06T13:46:00.185Z,14.90
2017-12-06T13:48:28.484Z,15.13
2017-12-06T13:50:56.954Z,15.50
2017-12-06T13:53:25.215Z,16.33
2017-12-06T13:55:53.500Z,16.10
2017-12-06T13:58:21.788Z,15.93
2017-12-06T14:00:50.046Z,15.60
2017-12-06T14:03:18.331Z,16.00
2017-12-06T14:05:46.612Z,16.70
2017-12-06T14:08:14.918Z,14.93
2017-12-06T14:10:43.190Z,18.33
2017-12-06T14:13:11.418Z,15.53
2017-12-06T14:15:39.671Z,15.30
2017-12-06T14:18:08.001Z,18.23
2017-12-06T14:20:36.273Z,17.90
2017-12-06T14:23:04.540Z,15.30
2017-12-06T14:25:32.885Z,14.33
2017-12-06T14:28:01.962Z,14.90
2017-12-06T14:30:30.261Z,17.00
2017-12-06T14:32:58.643Z,18.40
2017-12-06T14:35:27.643Z,17.33
2017-12-06T14:37:55.882Z,16.77
2017-12-06T14:40:24.245Z,16.90
2017-12-06T14:42:52.498Z,18.90
2017-12-06T14:45:20.725Z,16.60
2017-12-06T14:47:49.008Z,15.57
2017-12-06T14:50:17.270Z,18.73
2017-12-06T14:52:45.651Z,21.80
2017-12-06T14:55:13.925Z,17.60
2017-12-06T14:57:42.199Z,16.23
2017-12-06T15:00:11.245Z,16.40
2017-12-06T15:05:25.686Z,17.70
2017-12-06T15:07:53.972Z,17.30
2017-12-06T15:10:22.220Z,16.83
2017-12-06T15:12:54.274Z,16.10
2017-12-06T15:15:22.654Z,18.03
2017-12-06T15:17:50.921Z,16.33
2017-12-06T15:20:19.896Z,15.50
2017-12-06T15:22:48.192Z,17.13
2017-12-06T15:25:16.432Z,18.80
2017-12-06T15:27:44.740Z,16.93
2017-12-06T15:30:12.994Z,18.43
2017-12-06T15:32:41.242Z,16.33
2017-12-06T15:35:09.606Z,14.90
2017-12-06T15:37:37.862Z,16.17
2017-12-06T15:40:06.114Z,16.70
2017-12-06T15:42:34.430Z,16.00
2017-12-06T15:45:03.460Z,16.90
2017-12-06T15:47:31.700Z,14.80
2017-12-06T15:50:00.855Z,16.73
2017-12-06T15:52:29.105Z,17.00
2017-12-06T15:54:57.391Z,15.53
2017-12-06T15:57:25.881Z,16.10
2017-12-06T15:59:54.133Z,17.10
2017-12-06T16:02:22.367Z,18.30
2017-12-06T16:04:50.641Z,19.47
2017-12-06T16:07:19.040Z,18.97
2017-12-06T16:09:47.283Z,20.17
2017-12-06T16:12:15.542Z,20.00
2017-12-06T16:14:43.848Z,20.87
2017-12-06T16:17:12.885Z,19.27
2017-12-06T16:19:41.115Z,19.40
2017-12-06T16:22:10.237Z,17.63
2017-12-06T16:24:38.481Z,19.10
2017-12-06T16:27:07.552Z,18.80
2017-12-06T16:29:35.897Z,21.67
2017-12-06T16:32:04.190Z,20.23
2017-12-06T16:34:32.502Z,18.80
2017-12-06T16:37:18.818Z,18.13
2017-12-06T16:39:47.078Z,18.67
2017-12-06T16:42:16.141Z,17.90
2017-12-06T16:44:44.537Z,20.53
2017-12-06T16:47:12.779Z,18.40
2017-12-06T16:49:41.043Z,15.93
2017-12-06T16:52:09.418Z,18.43
2017-12-06T16:54:37.807Z,18.33
2017-12-06T16:57:06.115Z,19.23
2017-12-06T16:59:34.346Z,18.30
2017-12-06T17:02:02.723Z,18.40
2017-12-06T17:04:31.036Z,17.03
2017-12-06T17:06:59.310Z,18.47
2017-12-06T17:09:27.609Z,19.70
2017-12-06T17:11:56.758Z,18.70
2017-12-06T17:14:25.149Z,17.60
2017-12-06T17:16:53.422Z,18.57
2017-12-06T17:19:21.706Z,17.40
2017-12-06T17:21:50.140Z,17.47
2017-12-06T17:24:18.394Z,18.57
2017-12-06T17:26:46.692Z,12.37
2017-12-06T17:29:33.476Z,18.43
2017-12-06T17:32:01.719Z,18.33
2017-12-06T17:34:30.006Z,17.80
2017-12-06T17:36:58.463Z,19.33
2017-12-06T17:39:26.731Z,18.80
2017-12-06T17:41:55.022Z,19.93
2017-12-06T17:44:23.638Z,17.37
2017-12-06T17:46:51.924Z,17.50
2017-12-06T17:49:21.034Z,17.60
2017-12-06T17:51:50.536Z,17.20
2017-12-06T17:54:19.792Z,16.33
2017-12-06T17:56:48.052Z,14.57
2017-12-06T17:59:16.364Z,18.00
2017-12-06T18:01:44.885Z,17.37
2017-12-06T18:04:13.212Z,15.23
2017-12-06T18:06:41.458Z,15.83
2017-12-06T18:09:09.784Z,16.90
2017-12-06T18:11:38.902Z,15.53
2017-12-06T18:14:07.211Z,17.30
2017-12-06T18:16:35.715Z,15.83
2017-12-06T18:19:04.024Z,16.47
2017-12-06T18:21:33.231Z,16.40
2017-12-06T18:24:01.592Z,16.33
2017-12-06T18:26:30.630Z,15.43
2017-12-06T18:28:59.264Z,16.10
2017-12-06T18:31:28.528Z,15.47
2017-12-06T18:33:56.956Z,16.63
2017-12-06T18:36:25.921Z,17.03
2017-12-06T18:38:55.134Z,16.50
2017-12-06T18:41:24.357Z,16.53
2017-12-06T18:43:52.664Z,16.47
2017-12-06T18:46:20.938Z,17.80
2017-12-06T18:48:50.152Z,15.03
2017-12-06T18:51:19.041Z,14.93
2017-12-06T18:53:47.357Z,15.70
2017-12-06T18:56:16.440Z,16.70
2017-12-06T18:58:45.344Z,15.60
2017-12-06T19:01:14.392Z,18.83
2017-12-06T19:03:43.455Z,15.97
2017-12-06T19:06:12.496Z,15.00
2017-12-06T19:08:40.808Z,14.30
2017-12-06T19:11:09.106Z,16.27
2017-12-06T19:13:37.552Z,13.90
2017-12-06T19:16:05.874Z,19.17
2017-12-06T19:18:34.162Z,14.43
2017-12-06T19:21:03.496Z,15.07
2017-12-06T19:23:31.811Z,14.93
2017-12-06T19:26:00.113Z,15.80
2017-12-06T19:28:28.483Z,14.80
2017-12-06T19:30:57.806Z,15.23
2017-12-06T19:33:27.032Z,15.80
2017-12-06T19:35:56.275Z,16.60
2017-12-06T19:38:28.048Z,13.90
2017-12-06T19:40:57.356Z,15.40
2017-12-06T19:43:27.419Z,15.00
2017-12-06T19:45:56.143Z,14.10
2017-12-06T19:48:25.121Z,16.13
2017-12-06T19:50:53.577Z,15.73
2017-12-06T19:53:22.339Z,15.43
2017-12-06T19:55:52.007Z,16.43
2017-12-06T19:58:21.388Z,15.93
2017-12-06T20:00:49.769Z,15.80
2017-12-06T20:03:18.851Z,14.73
2017-12-06T20:05:47.303Z,16.00
2017-12-06T20:08:16.539Z,14.83
2017-12-06T20:10:45.574Z,17.00
2017-12-06T20:13:17.540Z,15.87
2017-12-06T20:15:45.871Z,19.73
2017-12-06T20:18:15.071Z,15.43
2017-12-06T20:20:43.477Z,14.83
2017-12-06T20:23:11.811Z,16.20
2017-12-06T20:25:41.250Z,15.50
2017-12-06T20:28:10.260Z,14.97
2017-12-06T20:30:40.064Z,14.40
2017-12-06T20:33:09.133Z,16.00
2017-12-06T20:35:37.502Z,15.63
2017-12-06T20:38:05.830Z,15.40
2017-12-06T20:40:34.246Z,16.00
2017-12-06T20:43:02.928Z,14.50
2017-12-06T20:45:31.434Z,16.47
2017-12-06T20:47:59.955Z,15.90
2017-12-06T20:50:28.579Z,16.20
2017-12-06T20:52:57.718Z,19.03
2017-12-06T20:55:26.178Z,14.53
2017-12-06T20:57:55.255Z,15.27
2017-12-06T21:00:23.557Z,15.90
2017-12-06T21:02:51.927Z,14.17
2017-12-06T21:05:20.271Z,15.27
2017-12-06T21:07:48.592Z,14.57
2017-12-06T21:10:17.010Z,16.90
2017-12-06T21:12:45.630Z,14.03
2017-12-06T21:15:13.910Z,14.53
2017-12-06T21:17:43.200Z,17.07
2017-12-06T21:20:14.653Z,14.53
2017-12-06T21:22:43.163Z,14.20
2017-12-06T21:25:11.480Z,13.63
2017-12-06T21:27:40.689Z,18.27
2017-12-06T21:30:09.033Z,13.97
2017-12-06T21:32:37.301Z,13.37
2017-12-06T21:35:05.655Z,13.87
2017-12-06T21:37:33.992Z,14.60
2017-12-06T21:40:02.309Z,17.97
2017-12-06T21:42:30.546Z,13.53
2017-12-06T21:44:58.963Z,15.43
2017-12-06T21:47:27.273Z,13.87
2017-12-06T21:49:55.507Z,13.30
2017-12-06T21:52:23.994Z,13.80
2017-12-06T21:54:53.110Z,15.90
2017-12-06T21:57:21.429Z,13.80
2017-12-06T21:59:49.671Z,14.40
2017-12-06T22:02:18.141Z,13.37
2017-12-06T22:05:04.123Z,14.03
2017-12-06T22:07:32.522Z,14.27
2017-12-06T22:10:00.868Z,13.10
2017-12-06T22:12:29.133Z,13.50
2017-12-06T22:14:58.351Z,13.43
2017-12-06T22:17:26.715Z,13.30
2017-12-06T22:19:55.020Z,13.20
2017-12-06T22:22:24.249Z,14.70
2017-12-06T22:24:52.604Z,14.37
2017-12-06T22:27:20.860Z,14.10
2017-12-06T22:29:49.979Z,13.87
2017-12-06T22:32:18.251Z,12.90
2017-12-06T22:34:46.534Z,14.67
2017-12-06T22:37:14.890Z,13.47
2017-12-06T22:39:43.186Z,12.43
2017-12-06T22:42:11.466Z,12.30
2017-12-06T22:44:39.812Z,13.20
2017-12-06T22:47:08.070Z,13.13
2017-12-06T22:49:36.317Z,13.37
2017-12-06T22:52:04.692Z,11.77
2017-12-06T22:54:33.044Z,12.80
2017-12-06T22:57:01.431Z,12.63
2017-12-06T22:59:29.775Z,13.67
2017-12-06T23:01:58.114Z,12.17
2017-12-06T23:04:27.146Z,11.10
2017-12-06T23:06:55.552Z,11.70
2017-12-06T23:09:23.842Z,12.47
2017-12-06T23:11:52.105Z,13.30
2017-12-06T23:14:21.330Z,12.83
2017-12-06T23:16:49.637Z,12.40
2017-12-06T23:19:17.932Z,12.47
2017-12-06T23:21:46.342Z,12.40
2017-12-06T23:24:14.641Z,12.13
2017-12-06T23:26:43.740Z,10.90
2017-12-06T23:29:12.149Z,10.47
2017-12-06T23:31:41.088Z,11.20
2017-12-06T23:34:09.369Z,11.90
2017-12-06T23:36:37.798Z,11.50
2017-12-06T23:39:06.057Z,11.37
2017-12-06T23:41:34.298Z,11.40
2017-12-06T23:44:02.700Z,11.10
2017-12-06T23:46:31.719Z,10.93
2017-12-06T23:48:59.975Z,10.43
2017-12-06T23:51:28.279Z,10.90
2017-12-06T23:53:56.619Z,11.50
2017-12-06T23:56:25.643Z,11.00
2017-12-06T23:58:53.896Z,11.93
